Time;durP1;ratioP1;P1;durP2;ratioP2;P2;SDS_P1;SDS_P2;PMS_P1;PMS_P2;Temp;Humidity;BMP_temperature;BMP_pressure;BME280_temperature;BME280_humidity;BME280_pressure;Samples;Min_cycle;Max_cycle;Signal;HPM_P1;HPM_P2
2022/04/20 00:00:45;;;;;;;4.40;2.67;;;7.80;99.90;;;;;;5016332;28;20049;-77
2022/04/20 00:03:11;;;;;;;3.95;2.70;;;7.90;99.90;;;;;;5013816;28;20046;-77
2022/04/20 00:05:37;;;;;;;4.85;2.83;;;7.90;99.90;;;;;;5014566;28;20045;-77
2022/04/20 00:08:03;;;;;;;4.28;2.78;;;7.90;99.90;;;;;;5016290;28;20137;-77
2022/04/20 00:10:30;;;;;;;5.78;3.00;;;8.00;99.90;;;;;;5014730;28;20435;-77
2022/04/20 00:12:56;;;;;;;5.95;2.85;;;8.20;99.90;;;;;;5015637;28;20129;-77
2022/04/20 00:15:23;;;;;;;4.38;2.92;;;8.00;99.90;;;;;;5015558;28;20077;-77
2022/04/20 00:17:49;;;;;;;5.85;2.67;;;7.90;99.90;;;;;;5015465;28;20478;-77
2022/04/20 00:20:15;;;;;;;6.72;3.03;;;7.90;99.90;;;;;;5014465;28;20046;-77
2022/04/20 00:22:40;;;;;;;4.22;2.80;;;7.90;99.90;;;;;;5015894;28;20088;-77
2022/04/20 00:25:07;;;;;;;6.22;3.30;;;7.90;99.90;;;;;;5014373;28;20050;-77
2022/04/20 00:27:35;;;;;;;4.70;2.88;;;7.80;99.90;;;;;;5015863;28;20045;-77
2022/04/20 00:30:02;;;;;;;10.52;2.70;;;7.80;99.90;;;;;;5014205;28;20042;-77
2022/04/20 00:32:29;;;;;;;7.60;3.60;;;7.80;99.90;;;;;;5014264;28;20061;-77
2022/04/20 00:34:55;;;;;;;4.97;3.15;;;7.80;99.90;;;;;;5015205;28;20053;-77
2022/04/20 00:37:21;;;;;;;5.82;2.83;;;7.80;99.90;;;;;;5015334;28;20049;-77
2022/04/20 00:39:47;;;;;;;5.63;3.08;;;7.80;99.90;;;;;;5015010;28;20431;-77
2022/04/20 00:42:12;;;;;;;5.35;3.20;;;7.80;99.90;;;;;;4998534;28;20064;-77
2022/04/20 00:44:40;;;;;;;6.57;3.10;;;8.00;99.90;;;;;;5014970;28;20053;-77
2022/04/20 00:47:07;;;;;;;6.97;3.25;;;7.80;99.90;;;;;;5015495;28;20085;-77
2022/04/20 00:49:35;;;;;;;5.88;3.25;;;7.70;99.90;;;;;;5014901;28;20046;-77
2022/04/20 00:52:02;;;;;;;6.85;3.13;;;7.70;99.90;;;;;;5013870;28;20053;-77
2022/04/20 00:54:28;;;;;;;6.40;3.42;;;7.60;99.90;;;;;;5014694;28;20454;-77
2022/04/20 00:56:54;;;;;;;7.05;3.60;;;7.60;99.90;;;;;;5015312;28;20058;-77
2022/04/20 00:59:23;;;;;;;6.53;3.25;;;8.10;99.90;;;;;;5014829;28;20149;-77
2022/04/20 01:01:50;;;;;;;9.18;3.70;;;7.60;99.90;;;;;;5013736;28;20073;-77
2022/04/20 01:04:16;;;;;;;5.90;3.30;;;7.50;99.90;;;;;;5014644;28;20132;-77
2022/04/20 01:06:42;;;;;;;5.85;3.35;;;7.50;99.90;;;;;;5013646;28;20085;-77
2022/04/20 01:09:09;;;;;;;7.32;3.85;;;7.50;99.90;;;;;;5014544;28;20060;-78
2022/04/20 01:11:35;;;;;;;5.65;3.40;;;7.40;99.90;;;;;;5013602;28;20049;-78
2022/04/20 01:14:01;;;;;;;11.48;3.78;;;7.40;99.90;;;;;;5013728;28;20484;-77
2022/04/20 01:16:27;;;;;;;5.40;3.60;;;7.50;99.90;;;;;;5013472;28;20132;-78
2022/04/20 01:18:53;;;;;;;6.22;3.47;;;7.50;99.90;;;;;;5014375;28;20176;-78
2022/04/20 01:21:19;;;;;;;5.57;3.20;;;7.40;99.90;;;;;;5014362;28;20490;-78
2022/04/20 01:23:44;;;;;;;5.05;3.03;;;7.50;99.90;;;;;;5014273;28;20049;-78
2022/04/20 01:26:10;;;;;;;6.38;3.45;;;7.40;99.90;;;;;;5014308;28;20045;-77
2022/04/20 01:28:38;;;;;;;5.70;3.33;;;7.40;99.90;;;;;;5014963;28;20060;-77
2022/04/20 01:31:04;;;;;;;5.80;3.80;;;7.40;99.90;;;;;;4997132;28;20054;-77
2022/04/20 01:33:30;;;;;;;6.97;3.35;;;7.40;99.90;;;;;;5013215;28;20058;-77
2022/04/20 01:35:56;;;;;;;6.68;3.50;;;7.30;99.90;;;;;;5013686;28;20042;-78
2022/04/20 01:38:22;;;;;;;5.72;3.25;;;7.30;99.90;;;;;;5014072;28;20088;-78
2022/04/20 01:40:48;;;;;;;6.28;3.15;;;7.20;99.90;;;;;;5014064;28;20050;-78
2022/04/20 01:43:13;;;;;;;6.00;3.22;;;7.10;99.90;;;;;;4996539;28;20045;-78
2022/04/20 01:45:39;;;;;;;5.78;3.33;;;7.00;99.90;;;;;;5012882;28;20053;-78
2022/04/20 01:48:06;;;;;;;6.25;3.53;;;7.00;99.90;;;;;;5014214;28;20052;-78
2022/04/20 01:50:32;;;;;;;4.50;3.38;;;6.90;99.90;;;;;;5012983;28;20049;-77
2022/04/20 01:52:57;;;;;;;7.20;3.80;;;6.90;99.90;;;;;;5013219;28;20137;-77
2022/04/20 01:55:23;;;;;;;6.32;3.58;;;6.80;99.90;;;;;;5014236;28;20050;-77
2022/04/20 01:57:49;;;;;;;7.32;3.55;;;6.90;99.90;;;;;;5014341;28;20053;-77
2022/04/20 02:00:16;;;;;;;8.88;3.97;;;6.80;99.90;;;;;;5012641;28;20054;-78
2022/04/20 02:02:42;;;;;;;10.27;5.72;;;6.80;99.90;;;;;;5012611;28;20065;-78
2022/04/20 02:05:12;;;;;;;7.35;3.50;;;7.00;99.90;;;;;;5014320;28;20053;-78
2022/04/20 02:07:38;;;;;;;7.13;3.40;;;6.80;99.90;;;;;;5013285;28;20463;-78
2022/04/20 02:10:06;;;;;;;6.32;3.85;;;6.80;99.90;;;;;;5013548;28;20050;-78
2022/04/20 02:12:31;;;;;;;6.55;3.42;;;6.80;99.90;;;;;;5013735;28;20081;-78
2022/04/20 02:14:57;;;;;;;6.15;3.67;;;6.80;99.90;;;;;;5013637;28;20244;-78
2022/04/20 02:17:23;;;;;;;8.98;4.15;;;7.10;99.90;;;;;;5013696;28;20076;-78
2022/04/20 02:19:50;;;;;;;5.95;3.80;;;6.80;99.90;;;;;;5014074;28;20379;-78
2022/04/20 02:22:15;;;;;;;6.10;3.72;;;6.80;99.90;;;;;;5013490;28;20050;-78
2022/04/20 02:24:42;;;;;;;6.93;4.00;;;6.80;99.90;;;;;;5013772;28;20056;-78
2022/04/20 02:27:11;;;;;;;6.22;3.58;;;6.80;99.90;;;;;;5016691;28;20147;-78
2022/04/20 02:29:38;;;;;;;6.10;4.15;;;6.70;99.90;;;;;;5000352;28;20180;-78
2022/04/20 02:32:05;;;;;;;6.85;3.60;;;6.70;99.90;;;;;;5016516;28;20525;-78
2022/04/20 02:34:31;;;;;;;8.38;5.20;;;6.70;99.90;;;;;;5001107;28;20065;-78
2022/04/20 02:36:58;;;;;;;6.65;3.55;;;6.80;99.90;;;;;;5017464;28;20479;-78
2022/04/20 02:39:24;;;;;;;6.43;3.78;;;6.70;99.90;;;;;;5016383;28;20565;-78
2022/04/20 02:41:49;;;;;;;5.03;3.47;;;6.60;99.90;;;;;;5018111;28;20367;-78
2022/04/20 02:44:15;;;;;;;6.47;3.72;;;6.60;99.90;;;;;;5016793;28;20042;-78
2022/04/20 02:46:43;;;;;;;6.43;3.55;;;6.70;99.90;;;;;;5015959;28;20081;-78
2022/04/20 02:49:09;;;;;;;7.10;4.25;;;6.50;99.90;;;;;;5016239;28;20457;-78
2022/04/20 02:51:35;;;;;;;7.82;3.92;;;6.50;99.90;;;;;;5017092;28;20132;-78
2022/04/20 02:54:00;;;;;;;7.18;3.95;;;6.50;99.90;;;;;;5017061;28;20042;-78
2022/04/20 02:56:26;;;;;;;7.57;3.63;;;6.70;99.90;;;;;;4999290;28;20154;-78
2022/04/20 02:58:52;;;;;;;5.40;3.60;;;6.40;99.90;;;;;;5016182;28;20053;-78
2022/04/20 03:01:17;;;;;;;7.22;4.20;;;6.40;99.90;;;;;;5017099;28;20538;-78
2022/04/20 03:03:43;;;;;;;6.13;4.13;;;6.30;99.90;;;;;;5017140;28;20078;-78
2022/04/20 03:06:09;;;;;;;7.30;4.30;;;6.40;99.90;;;;;;5015930;28;20046;-78
2022/04/20 03:08:35;;;;;;;9.48;4.50;;;6.20;99.90;;;;;;5015700;28;20421;-78
2022/04/20 03:11:01;;;;;;;7.45;3.65;;;6.20;99.90;;;;;;5015715;28;20398;-78
2022/04/20 03:13:27;;;;;;;7.70;3.70;;;6.10;99.90;;;;;;5016724;28;20042;-78
2022/04/20 03:15:52;;;;;;;6.82;3.70;;;6.10;99.90;;;;;;5016668;28;20053;-78
2022/04/20 03:18:18;;;;;;;7.50;4.32;;;6.00;99.90;;;;;;5016557;28;20057;-78
2022/04/20 03:20:44;;;;;;;6.53;3.75;;;6.00;99.90;;;;;;5015604;28;20042;-78
2022/04/20 03:23:12;;;;;;;7.10;4.40;;;5.90;99.90;;;;;;5016051;28;20088;-78
2022/04/20 03:25:38;;;;;;;7.88;4.40;;;5.90;99.90;;;;;;5017336;28;20136;-78
2022/04/20 03:28:03;;;;;;;6.90;4.18;;;5.90;99.90;;;;;;5016355;28;20081;-78
2022/04/20 03:30:29;;;;;;;6.65;3.90;;;5.80;99.90;;;;;;5016445;28;20494;-78
2022/04/20 03:32:55;;;;;;;4.90;3.33;;;5.80;99.90;;;;;;5016344;28;20046;-78
2022/04/20 03:35:21;;;;;;;6.55;4.07;;;5.80;99.90;;;;;;5016091;28;20046;-78
2022/04/20 03:37:46;;;;;;;7.03;3.65;;;5.70;99.90;;;;;;5014254;28;20046;-78
2022/04/20 03:40:12;;;;;;;8.65;3.85;;;5.70;99.90;;;;;;5016175;28;20132;-78
2022/04/20 03:42:38;;;;;;;6.95;3.70;;;5.60;99.90;;;;;;5014888;28;20045;-78
2022/04/20 03:45:04;;;;;;;6.95;3.75;;;5.50;99.90;;;;;;5015347;28;20100;-78
2022/04/20 03:47:30;;;;;;;7.40;3.58;;;5.40;99.90;;;;;;5014934;28;20053;-78
2022/04/20 03:49:55;;;;;;;6.95;3.33;;;5.40;99.90;;;;;;4998340;28;20046;-78
2022/04/20 03:52:21;;;;;;;6.95;4.13;;;5.60;99.90;;;;;;5016023;28;20103;-78
2022/04/20 03:54:47;;;;;;;6.72;4.05;;;5.30;99.90;;;;;;5014554;28;20108;-78
2022/04/20 03:57:13;;;;;;;8.32;4.35;;;5.40;99.90;;;;;;5014883;28;20136;-79
2022/04/20 03:59:38;;;;;;;6.30;4.10;;;5.30;99.90;;;;;;5016311;28;20057;-79
2022/04/20 04:02:06;;;;;;;9.35;4.50;;;5.20;99.90;;;;;;5014871;28;20054;-79
2022/04/20 04:04:32;;;;;;;8.70;3.90;;;5.20;99.90;;;;;;5014559;28;20042;-79
2022/04/20 04:06:58;;;;;;;6.68;3.90;;;5.30;99.90;;;;;;4998548;28;20112;-79
2022/04/20 04:09:24;;;;;;;7.13;3.90;;;5.30;99.90;;;;;;5014707;28;20430;-79
2022/04/20 04:11:50;;;;;;;6.97;4.00;;;5.80;99.90;;;;;;5015010;28;20104;-79
2022/04/20 04:14:17;;;;;;;6.68;3.92;;;5.30;99.90;;;;;;5014880;28;20097;-79
2022/04/20 04:16:44;;;;;;;6.03;3.90;;;5.20;99.90;;;;;;5014422;28;20045;-79
2022/04/20 04:19:10;;;;;;;6.82;4.25;;;5.20;99.90;;;;;;5014496;28;20054;-78
2022/04/20 04:21:37;;;;;;;6.57;3.55;;;5.20;99.90;;;;;;5014523;28;20403;-79
2022/04/20 04:24:04;;;;;;;7.10;4.55;;;5.10;99.90;;;;;;5014697;28;20049;-79
2022/04/20 04:26:30;;;;;;;5.30;3.60;;;5.10;99.90;;;;;;5015169;28;20056;-79
2022/04/20 04:28:58;;;;;;;7.25;4.50;;;5.20;99.90;;;;;;5014594;28;20057;-79
2022/04/20 04:31:24;;;;;;;5.80;3.53;;;5.20;99.90;;;;;;5015104;28;20054;-79
2022/04/20 04:33:50;;;;;;;6.18;3.55;;;5.20;99.90;;;;;;5014078;28;20569;-79
2022/04/20 04:36:16;;;;;;;8.43;4.40;;;5.20;99.90;;;;;;5014144;28;20097;-79
2022/04/20 04:38:42;;;;;;;7.03;3.88;;;5.10;99.90;;;;;;5013685;28;20049;-79
2022/04/20 04:41:07;;;;;;;7.38;4.25;;;5.30;99.90;;;;;;5014779;28;20054;-79
2022/04/20 04:43:33;;;;;;;6.70;3.97;;;5.10;99.90;;;;;;5014851;28;20048;-79
2022/04/20 04:48:43;;;;;;;7.32;3.92;;;5.00;99.90;;;;;;5014273;28;20076;-79
2022/04/20 04:51:10;;;;;;;8.45;3.85;;;5.10;99.90;;;;;;5014940;28;20046;-79
2022/04/20 04:53:39;;;;;;;8.73;3.97;;;5.00;99.90;;;;;;5014158;28;20132;-79
2022/04/20 04:56:05;;;;;;;5.22;3.53;;;5.00;99.90;;;;;;5015409;28;20070;-79
2022/04/20 04:58:30;;;;;;;7.20;4.30;;;5.00;99.90;;;;;;5013688;28;20380;-79
2022/04/20 05:00:58;;;;;;;8.07;4.30;;;5.00;99.90;;;;;;4997446;28;20399;-79
2022/04/20 05:03:24;;;;;;;8.20;3.70;;;5.00;99.90;;;;;;5015384;28;20050;-79
2022/04/20 05:05:50;;;;;;;6.45;3.78;;;5.00;99.90;;;;;;5013746;28;20058;-79
2022/04/20 05:08:16;;;;;;;6.25;4.00;;;5.10;99.90;;;;;;5013596;28;20053;-79
2022/04/20 05:10:42;;;;;;;7.90;4.40;;;5.10;99.90;;;;;;5014591;28;20491;-79
2022/04/20 05:13:08;;;;;;;7.90;3.97;;;5.20;99.90;;;;;;5014343;28;20100;-79
2022/04/20 05:15:34;;;;;;;5.40;3.88;;;5.20;99.90;;;;;;5014452;28;20055;-79
2022/04/20 05:18:00;;;;;;;9.88;5.07;;;5.20;99.90;;;;;;5013450;28;20129;-79
2022/04/20 05:20:26;;;;;;;8.93;5.90;;;5.50;99.90;;;;;;5014255;28;20379;-79
2022/04/20 05:22:52;;;;;;;7.13;4.30;;;5.60;99.90;;;;;;5014332;28;20046;-79
2022/04/20 05:25:18;;;;;;;7.57;4.20;;;5.80;99.90;;;;;;5014134;28;20482;-79
2022/04/20 05:27:47;;;;;;;6.70;4.00;;;5.40;99.90;;;;;;5013306;28;20050;-79
2022/04/20 05:30:14;;;;;;;7.13;4.60;;;5.50;99.90;;;;;;5013977;28;20046;-79
2022/04/20 05:32:41;;;;;;;6.82;4.53;;;5.60;99.90;;;;;;5014279;28;20103;-79
2022/04/20 05:35:07;;;;;;;6.57;4.32;;;5.60;99.90;;;;;;5013272;28;20058;-79
2022/04/20 05:43:01;;;;;;;5.95;3.95;;;5.80;99.90;;;;;;5014485;28;20042;-76
2022/04/20 05:45:27;;;;;;;8.40;4.50;;;6.00;99.90;;;;;;5013883;28;20141;-75
2022/04/20 05:47:53;;;;;;;7.50;4.32;;;6.00;99.90;;;;;;5013935;28;20107;-76
2022/04/20 05:50:19;;;;;;;7.68;4.60;;;6.00;99.90;;;;;;5013876;28;20097;-76
2022/04/20 05:52:44;;;;;;;8.07;4.35;;;6.10;99.90;;;;;;5013957;28;20435;-76
2022/04/20 05:55:10;;;;;;;6.68;4.20;;;6.20;99.90;;;;;;5013619;28;20406;-76
2022/04/20 05:57:37;;;;;;;6.13;4.13;;;6.40;99.90;;;;;;5013806;28;20068;-76
2022/04/20 06:00:06;;;;;;;7.45;4.68;;;6.40;99.90;;;;;;5012081;28;20050;-76
2022/04/20 06:02:34;;;;;;;8.35;4.63;;;6.50;99.90;;;;;;5013656;28;20042;-76
2022/04/20 06:05:01;;;;;;;7.53;3.88;;;6.60;99.90;;;;;;5012347;28;20482;-76
2022/04/20 06:07:27;;;;;;;5.65;4.10;;;6.70;99.90;;;;;;5013732;28;20049;-76
2022/04/20 06:09:53;;;;;;;6.25;4.30;;;6.80;99.90;;;;;;5013676;28;20049;-76
2022/04/20 06:12:21;;;;;;;8.57;4.53;;;6.90;99.90;;;;;;5012939;28;20046;-76
2022/04/20 06:14:47;;;;;;;7.72;5.07;;;7.00;99.90;;;;;;5013000;28;20053;-76
2022/04/20 06:17:13;;;;;;;6.35;4.45;;;7.10;99.90;;;;;;5013633;28;20054;-76
2022/04/20 06:19:39;;;;;;;9.20;4.50;;;7.20;99.90;;;;;;5013543;28;20133;-76
2022/04/20 06:22:05;;;;;;;8.82;4.85;;;7.30;99.90;;;;;;5013879;28;20132;-76
2022/04/20 06:24:31;;;;;;;7.60;4.55;;;7.40;99.90;;;;;;5012315;28;20042;-76
2022/04/20 06:26:57;;;;;;;9.02;4.13;;;7.50;99.90;;;;;;5013447;28;20042;-75
2022/04/20 06:29:23;;;;;;;7.28;4.30;;;7.70;99.90;;;;;;5012258;28;20107;-77
2022/04/20 06:31:48;;;;;;;7.20;4.00;;;7.80;99.90;;;;;;5012734;28;20052;-76
2022/04/20 06:34:14;;;;;;;7.38;4.30;;;8.00;99.90;;;;;;5013409;28;20034;-77
2022/04/20 06:36:40;;;;;;;6.53;3.92;;;8.00;99.90;;;;;;5013646;28;20038;-75
2022/04/20 06:39:06;;;;;;;6.18;3.95;;;8.10;99.90;;;;;;5013070;28;20467;-75
2022/04/20 06:41:31;;;;;;;7.50;4.45;;;8.20;99.90;;;;;;5013120;28;20674;-75
2022/04/20 06:43:57;;;;;;;6.63;3.97;;;8.30;99.90;;;;;;5013280;28;20132;-77
2022/04/20 06:46:23;;;;;;;5.47;3.90;;;8.40;99.90;;;;;;5012118;28;20084;-77
2022/04/20 06:48:49;;;;;;;7.35;4.28;;;8.50;99.90;;;;;;5012186;28;20077;-77
2022/04/20 06:51:15;;;;;;;7.22;4.28;;;8.60;99.90;;;;;;5013300;28;20460;-75
2022/04/20 06:59:09;;;;;;;5.65;3.65;;;8.90;99.90;;;;;;5011795;28;20054;-75
2022/04/20 07:01:35;;;;;;;7.00;3.63;;;9.00;99.90;;;;;;5012759;28;20053;-75
2022/04/20 07:04:01;;;;;;;6.05;3.80;;;9.20;99.90;;;;;;5013161;28;20048;-75
2022/04/20 07:06:27;;;;;;;7.40;4.32;;;9.20;99.90;;;;;;5013200;28;20389;-76
2022/04/20 07:08:53;;;;;;;8.65;4.88;;;9.30;99.90;;;;;;5013163;28;20050;-75
2022/04/20 07:11:19;;;;;;;6.28;3.85;;;9.40;99.90;;;;;;5013435;28;20045;-77
2022/04/20 07:13:48;;;;;;;5.65;3.58;;;9.50;99.90;;;;;;5016726;28;20125;-76
2022/04/20 07:16:14;;;;;;;4.78;3.20;;;9.60;99.90;;;;;;5015674;28;20474;-76
2022/04/20 07:18:39;;;;;;;5.60;3.53;;;9.70;99.90;;;;;;5015527;28;20046;-75
2022/04/20 07:21:05;;;;;;;6.32;3.95;;;9.80;99.90;;;;;;5015206;28;20085;-76
2022/04/20 07:23:31;;;;;;;5.80;3.55;;;9.80;99.90;;;;;;5016935;28;20070;-76
2022/04/20 07:25:57;;;;;;;6.57;3.80;;;9.90;99.90;;;;;;5016340;28;20133;-76
2022/04/20 07:28:22;;;;;;;5.30;3.67;;;10.00;99.90;;;;;;5015978;28;20085;-76
2022/04/20 07:30:48;;;;;;;5.88;4.00;;;10.00;99.90;;;;;;5016282;28;20498;-76
2022/04/20 07:33:15;;;;;;;4.47;2.97;;;10.20;99.90;;;;;;5016310;28;20037;-76
2022/04/20 07:35:44;;;;;;;4.70;3.42;;;10.20;99.90;;;;;;5016058;28;20056;-76
2022/04/20 07:38:10;;;;;;;6.70;3.55;;;10.30;99.90;;;;;;5016691;28;20053;-77
2022/04/20 07:40:36;;;;;;;6.57;3.28;;;10.40;99.90;;;;;;5016178;28;20407;-77
2022/04/20 07:43:02;;;;;;;4.60;2.38;;;10.40;99.90;;;;;;5015995;28;20044;-77
2022/04/20 07:45:28;;;;;;;3.28;2.40;;;10.50;99.90;;;;;;5016038;28;20050;-76
2022/04/20 07:47:55;;;;;;;4.50;3.03;;;10.60;99.90;;;;;;5015989;28;20061;-75
2022/04/20 07:50:24;;;;;;;5.57;2.97;;;10.80;99.90;;;;;;5016351;28;20053;-76
2022/04/20 07:52:57;;;;;;;5.22;3.13;;;10.90;99.90;;;;;;5016534;28;20045;-75
2022/04/20 07:55:29;;;;;;;5.13;3.05;;;11.00;99.90;;;;;;5015671;28;20495;-75
2022/04/20 07:57:58;;;;;;;4.13;2.80;;;11.10;99.90;;;;;;5015925;28;20151;-76
2022/04/20 08:00:25;;;;;;;4.57;2.65;;;11.20;99.90;;;;;;5014687;28;20046;-75
2022/04/20 08:03:06;;;;;;;3.65;2.45;;;11.30;99.90;;;;;;5014779;28;20483;-76
2022/04/20 08:05:31;;;;;;;3.42;2.40;;;11.40;99.90;;;;;;5015945;28;20046;-76
2022/04/20 08:07:57;;;;;;;6.40;3.13;;;11.50;99.90;;;;;;5015559;28;20425;-76
2022/04/20 08:10:23;;;;;;;4.57;2.45;;;11.50;99.90;;;;;;5016243;28;20054;-75
2022/04/20 08:12:48;;;;;;;4.95;2.72;;;11.60;99.90;;;;;;5015532;28;20430;-76
2022/04/20 08:15:14;;;;;;;3.97;2.45;;;11.70;99.90;;;;;;5014462;28;20134;-77
2022/04/20 08:17:40;;;;;;;4.82;2.92;;;11.80;99.90;;;;;;5016053;28;20091;-77
2022/04/20 08:20:08;;;;;;;4.43;2.70;;;11.90;99.90;;;;;;5014724;28;20046;-76
2022/04/20 08:22:42;;;;;;;4.13;2.67;;;12.00;99.90;;;;;;5015571;28;20169;-77
2022/04/20 08:25:12;;;;;;;4.72;2.55;;;12.20;99.90;;;;;;5015978;28;20050;-77
2022/04/20 08:27:38;;;;;;;4.22;2.63;;;12.30;99.90;;;;;;5015244;28;20553;-76
2022/04/20 08:30:06;;;;;;;3.95;2.40;;;12.40;99.90;;;;;;5015002;28;20046;-75
2022/04/20 08:32:32;;;;;;;4.13;2.38;;;12.50;99.90;;;;;;5015122;28;20042;-76
2022/04/20 08:34:58;;;;;;;3.72;2.42;;;12.60;99.90;;;;;;5014990;28;20443;-78
2022/04/20 08:37:24;;;;;;;4.03;2.30;;;12.60;99.90;;;;;;5015543;28;20053;-76
2022/04/20 08:39:49;;;;;;;3.25;2.20;;;12.80;99.90;;;;;;5014958;28;20054;-76
2022/04/20 08:42:19;;;;;;;5.07;3.00;;;12.90;99.90;;;;;;5014222;28;20053;-76
2022/04/20 08:44:49;;;;;;;3.45;2.30;;;12.90;99.90;;;;;;4998502;28;20069;-78
2022/04/20 08:47:21;;;;;;;3.38;1.98;;;12.90;99.90;;;;;;5013820;28;20050;-76
2022/04/20 08:49:51;;;;;;;3.33;2.28;;;13.10;99.90;;;;;;5015076;28;20471;-76
2022/04/20 08:55:10;;;;;;;7.82;3.15;;;13.40;99.90;;;;;;5014759;28;20121;-76
2022/04/20 08:57:37;;;;;;;6.95;2.85;;;13.50;99.90;;;;;;5015212;28;20049;-75
2022/04/20 09:00:05;;;;;;;4.10;2.85;;;13.70;99.90;;;;;;5014509;28;20209;-75
2022/04/20 09:02:31;;;;;;;6.85;2.70;;;13.80;99.90;;;;;;5013622;28;20084;-75
2022/04/20 09:04:57;;;;;;;3.92;2.45;;;13.90;99.90;;;;;;5014621;28;20096;-75
2022/04/20 09:07:25;;;;;;;4.43;2.47;;;14.00;99.90;;;;;;5014692;28;20133;-75
2022/04/20 09:09:50;;;;;;;3.53;1.90;;;14.10;99.90;;;;;;5013551;28;20512;-76
2022/04/20 09:12:18;;;;;;;3.70;1.85;;;14.10;99.90;;;;;;5013224;28;20058;-76
2022/04/20 09:14:52;;;;;;;4.13;1.92;;;14.30;99.90;;;;;;5014442;28;20108;-76
2022/04/20 09:17:21;;;;;;;4.00;2.20;;;14.40;99.90;;;;;;5014493;28;20054;-75
2022/04/20 09:19:51;;;;;;;4.05;2.42;;;14.50;99.90;;;;;;5014226;28;20067;-76
2022/04/20 09:22:30;;;;;;;3.72;2.28;;;14.60;99.90;;;;;;5013605;28;20045;-76
2022/04/20 09:24:59;;;;;;;2.85;1.80;;;14.70;99.90;;;;;;5014472;28;20053;-76
2022/04/20 09:27:27;;;;;;;3.33;1.85;;;14.70;99.90;;;;;;5014163;28;20049;-76
2022/04/20 09:29:58;;;;;;;3.88;2.28;;;14.80;99.90;;;;;;5013589;28;20507;-77
2022/04/20 09:32:33;;;;;;;3.80;2.17;;;14.80;99.90;;;;;;5014192;28;20090;-76
2022/04/20 09:35:00;;;;;;;3.73;1.90;;;14.80;99.90;;;;;;5012787;28;20518;-77
2022/04/20 09:37:26;;;;;;;3.95;1.92;;;14.90;99.90;;;;;;5012802;28;20770;-76
2022/04/20 09:39:52;;;;;;;4.90;2.00;;;15.00;99.90;;;;;;5013081;28;20136;-77
2022/04/20 09:42:18;;;;;;;3.25;1.95;;;15.10;99.90;;;;;;5013025;28;20507;-76
2022/04/20 09:45:02;;;;;;;3.33;1.92;;;15.20;99.90;;;;;;5013853;28;20050;-78
2022/04/20 09:50:26;;;;;;;3.88;1.90;;;15.30;99.90;;;;;;5014481;28;20450;-77
2022/04/20 09:52:55;;;;;;;4.45;1.98;;;15.40;99.90;;;;;;5013811;28;20127;-76
2022/04/20 09:55:28;;;;;;;3.67;2.38;;;15.50;99.90;;;;;;5014202;28;20072;-75
2022/04/20 09:58:18;;;;;;;3.80;2.08;;;15.60;99.90;;;;;;5012743;28;20348;-76
2022/04/20 10:00:51;;;;;;;4.35;1.60;;;15.60;99.90;;;;;;5013607;28;20054;-76
2022/04/20 10:03:28;;;;;;;3.75;2.47;;;15.70;99.90;;;;;;5013423;28;20541;-76
2022/04/20 10:05:54;;;;;;;3.60;2.30;;;15.80;99.90;;;;;;5013733;28;20054;-76
2022/04/20 10:08:21;;;;;;;5.20;2.10;;;15.90;99.90;;;;;;5013740;28;20128;-77
2022/04/20 10:10:49;;;;;;;3.22;2.10;;;15.90;99.90;;;;;;5013716;28;20046;-76
2022/04/20 10:13:17;;;;;;;4.63;2.20;;;16.00;99.90;;;;;;5013727;28;20125;-77
2022/04/20 10:16:05;;;;;;;3.22;2.05;;;16.10;99.90;;;;;;5012144;28;20060;-77
2022/04/20 10:18:33;;;;;;;4.63;2.53;;;16.10;99.90;;;;;;5014148;28;20077;-77
2022/04/20 10:21:02;;;;;;;4.65;2.25;;;16.20;99.90;;;;;;5014029;28;20061;-76
2022/04/20 10:23:32;;;;;;;3.38;2.03;;;16.30;99.90;;;;;;5013514;28;20460;-77
2022/04/20 10:25:59;;;;;;;3.00;1.98;;;16.40;99.90;;;;;;5012858;28;20053;-77
2022/04/20 10:28:33;;;;;;;3.30;1.90;;;16.40;99.90;;;;;;5013484;28;20052;-77
2022/04/20 10:31:26;;;;;;;3.47;1.80;;;16.40;99.90;;;;;;5012492;28;20133;-77
2022/04/20 10:33:53;;;;;;;4.05;2.20;;;16.60;99.90;;;;;;5012414;28;20050;-77
2022/04/20 10:36:28;;;;;;;3.50;2.30;;;16.70;99.90;;;;;;5012265;28;20544;-77
2022/04/20 10:39:17;;;;;;;2.53;1.83;;;16.90;99.90;;;;;;5012792;28;20172;-76
2022/04/20 10:42:11;;;;;;;3.25;1.60;;;17.00;99.90;;;;;;5013205;28;20054;-77
2022/04/20 10:44:55;;;;;;;3.45;1.80;;;17.10;99.90;;;;;;5013426;28;20046;-77
2022/04/20 10:47:28;;;;;;;3.75;2.15;;;17.20;99.90;;;;;;5017057;28;20082;-79
2022/04/20 10:50:20;;;;;;;6.40;2.20;;;17.20;99.90;;;;;;5016462;28;20053;-76
2022/04/20 10:52:52;;;;;;;2.80;1.90;;;17.20;99.90;;;;;;5017177;28;20125;-76
2022/04/20 10:55:44;;;;;;;2.47;1.70;;;17.20;99.90;;;;;;5016037;28;20085;-78
2022/04/20 10:58:36;;;;;;;3.42;1.40;;;17.20;99.90;;;;;;5017217;28;20057;-76
2022/04/20 11:01:12;;;;;;;4.15;1.73;;;17.30;99.90;;;;;;4998945;28;20136;-76
2022/04/20 11:04:02;;;;;;;3.65;1.83;;;17.30;99.90;;;;;;5017314;28;20046;-77
2022/04/20 11:06:49;;;;;;;2.78;1.70;;;17.40;99.90;;;;;;5016790;28;20065;-76
2022/04/20 11:09:43;;;;;;;3.53;1.73;;;17.30;99.90;;;;;;5016806;28;20053;-76
2022/04/20 11:21:21;;;;;;;2.28;1.33;;;17.60;99.90;;;;;;5016580;28;20054;-77
2022/04/20 11:24:03;;;;;;;2.10;1.50;;;17.70;98.70;;;;;;4985089;28;20057;-77
2022/04/20 11:26:31;;;;;;;3.30;1.55;;;17.60;98.90;;;;;;4999889;28;20143;-75
2022/04/20 11:29:17;;;;;;;2.92;1.65;;;17.70;99.40;;;;;;5015606;28;20050;-75
2022/04/20 11:32:04;;;;;;;3.65;1.50;;;17.70;98.00;;;;;;5015432;28;20535;-75
2022/04/20 11:34:34;;;;;;;2.28;1.42;;;17.70;98.60;;;;;;5016329;28;20049;-76
2022/04/20 11:37:01;;;;;;;2.47;1.60;;;17.70;98.30;;;;;;5017121;28;20052;-75
2022/04/20 11:39:28;;;;;;;4.28;1.42;;;17.80;97.50;;;;;;5015702;28;20517;-76
2022/04/20 11:42:02;;;;;;;3.10;1.60;;;17.80;97.40;;;;;;5016249;28;20135;-76
2022/04/20 11:44:35;;;;;;;3.13;1.50;;;17.90;97.50;;;;;;5015514;28;20081;-76
2022/04/20 11:47:03;;;;;;;3.25;1.80;;;17.90;96.50;;;;;;5016005;28;20410;-76
2022/04/20 11:49:33;;;;;;;3.03;1.90;;;17.90;96.60;;;;;;5016009;28;20141;-75
2022/04/20 11:52:00;;;;;;;3.47;1.63;;;18.00;96.10;;;;;;5016011;28;20085;-76
2022/04/20 11:54:29;;;;;;;3.20;1.75;;;18.10;96.40;;;;;;5015801;28;20046;-77
2022/04/20 11:56:55;;;;;;;4.03;1.80;;;18.10;96.40;;;;;;5014619;28;20097;-77
2022/04/20 11:59:21;;;;;;;5.95;2.22;;;18.20;97.10;;;;;;5014537;28;20108;-75
2022/04/20 12:01:47;;;;;;;3.80;1.80;;;18.30;97.00;;;;;;4998426;28;20054;-75
2022/04/20 12:04:22;;;;;;;3.47;1.75;;;18.40;97.30;;;;;;5015337;28;20096;-76
2022/04/20 12:06:55;;;;;;;3.42;1.70;;;18.40;96.30;;;;;;5015841;28;20054;-76
2022/04/20 12:09:29;;;;;;;3.47;1.67;;;18.50;97.00;;;;;;5016269;28;20430;-75
2022/04/20 12:11:58;;;;;;;2.88;1.80;;;18.60;96.90;;;;;;5014945;28;20059;-78
2022/04/20 12:14:32;;;;;;;3.17;2.30;;;18.60;96.60;;;;;;5015621;28;20076;-76
2022/04/20 12:17:01;;;;;;;4.22;2.30;;;18.60;96.50;;;;;;5014434;28;20057;-77
2022/04/20 12:19:30;;;;;;;3.85;2.22;;;18.80;96.10;;;;;;5015525;28;20054;-78
2022/04/20 12:22:03;;;;;;;5.95;2.45;;;19.00;95.70;;;;;;5015446;28;20372;-78
2022/04/20 12:24:29;;;;;;;3.35;1.92;;;19.10;95.90;;;;;;5014973;28;20434;-77
2022/04/20 12:26:56;;;;;;;3.17;2.30;;;19.10;95.70;;;;;;4997962;28;20057;-78
2022/04/20 12:29:24;;;;;;;3.15;2.35;;;19.30;96.10;;;;;;5015306;28;20085;-76
2022/04/20 12:31:54;;;;;;;4.05;2.50;;;19.50;95.90;;;;;;5015568;28;20052;-77
2022/04/20 12:34:21;;;;;;;4.75;2.47;;;19.50;95.70;;;;;;5015283;28;20049;-77
2022/04/20 12:37:07;;;;;;;3.90;2.58;;;19.50;95.50;;;;;;5015196;28;20061;-77
2022/04/20 12:39:39;;;;;;;4.00;2.70;;;19.60;95.30;;;;;;4997927;28;20077;-77
2022/04/20 12:42:17;;;;;;;3.17;2.22;;;19.80;95.50;;;;;;5014337;28;20111;-76
2022/04/20 12:44:47;;;;;;;3.17;2.05;;;19.90;94.40;;;;;;5015459;28;20050;-76
2022/04/20 12:47:16;;;;;;;3.75;2.35;;;20.10;95.10;;;;;;5014001;28;20045;-75
2022/04/20 12:49:52;;;;;;;5.20;2.97;;;20.30;94.90;;;;;;5015101;28;20515;-77
2022/04/20 12:52:23;;;;;;;3.25;2.38;;;20.40;94.10;;;;;;5013838;28;20093;-79
2022/04/20 12:55:08;;;;;;;3.42;2.45;;;20.60;94.10;;;;;;5014772;28;20058;-77
2022/04/20 13:03:15;;;;;;;3.30;2.65;;;21.30;93.90;;;;;;5014612;28;20081;-76
2022/04/20 13:05:44;;;;;;;5.20;2.60;;;21.60;93.80;;;;;;5013856;28;20049;-75
2022/04/20 13:08:12;;;;;;;3.50;2.65;;;21.80;93.70;;;;;;5014866;28;20065;-75
2022/04/20 13:10:43;;;;;;;4.28;3.00;;;22.00;92.90;;;;;;5013535;28;20046;-75
2022/04/20 13:13:10;;;;;;;4.55;2.75;;;22.10;92.10;;;;;;5015077;28;20426;-75
2022/04/20 13:15:36;;;;;;;4.95;2.80;;;22.30;92.20;;;;;;5015288;28;20072;-76
2022/04/20 13:18:01;;;;;;;4.03;2.70;;;22.50;91.80;;;;;;5014413;28;20498;-77
2022/04/20 13:20:28;;;;;;;4.00;2.85;;;22.60;91.90;;;;;;5014430;28;20218;-75
2022/04/20 13:22:58;;;;;;;3.30;2.67;;;22.80;90.70;;;;;;4996968;28;20046;-75
2022/04/20 13:28:09;;;;;;;4.78;3.08;;;22.10;90.50;;;;;;5014301;28;20147;-75
2022/04/20 13:30:38;;;;;;;5.22;3.03;;;21.50;90.30;;;;;;5013077;28;20050;-75
2022/04/20 13:33:08;;;;;;;4.38;3.00;;;21.20;89.70;;;;;;5013027;28;20050;-76
2022/04/20 13:35:34;;;;;;;4.65;3.08;;;20.80;89.90;;;;;;5013144;28;20398;-76